^^
Station Historical Data
 
Daily Summary for November 12, 2018 Units:  English    Metric   Both
« Previous Day
Next Day »
Daily Weekly Monthly Yearly Custom
  Current: High: Low: Average:
Temperature: 44.8 °F TemperatureF °F 39.4 °F 42.7 °F
Dew Point: 27.3 °F DewpointF °F 25.3 °F 28.8 °F
Humidity: 50% Humidity% 50% 57%
Wind Speed: 0.0mph WindSpeedMPHmph 0.0mph 0.2mph
Wind Gust: 0.0mph WindSpeedGustMPHmph - -
WindCalm - - SE
Pressure: 30.14 in PressureIn in 30.14 in -
Precipitation: 1.30 in      
Historical Graphs
 
 
Tabular Data for November 12, 2018
Time Temperature Dew Point Pressure Wind Wind Speed Wind Gust Humidity Rainfall Rate (Hourly)
TemperatureF °F DewpointF °F PressureIn in Calm     Humidity% HourlyPrecipIn in
00:04 46.0 °F 31.6 °F 30.34 in Calm   1.0 mph 57% 0.00 in
00:08 46.0 °F 31.6 °F 30.33 in Calm   5.0 mph 57% 0.00 in
00:13 46.0 °F 31.6 °F 30.33 in Calm     57% 0.00 in
00:19 46.0 °F 31.6 °F 30.33 in Calm   2.0 mph 57% 0.00 in
00:24 46.0 °F 31.6 °F 30.34 in East 2.0 mph 5.0 mph 57% 0.00 in
00:28 46.0 °F 32.0 °F 30.34 in Calm     58% 0.00 in
00:34 46.0 °F 31.6 °F 30.33 in Calm   1.0 mph 57% 0.00 in
00:39 46.0 °F 31.6 °F 30.33 in SE 0.9 mph 4.0 mph 57% 0.00 in
00:44 46.0 °F 31.6 °F 30.33 in Calm     57% 0.00 in
00:49 46.0 °F 32.0 °F 30.32 in SE 4.0 mph 4.0 mph 58% 0.00 in
00:54 46.0 °F 32.0 °F 30.32 in Calm   5.0 mph 58% 0.00 in
00:59 46.0 °F 32.0 °F 30.32 in SE 2.0 mph 4.0 mph 58% 0.00 in
01:03 45.9 °F 32.0 °F 30.32 in SE 0.9 mph 2.0 mph 58% 0.00 in
01:09 46.0 °F 32.0 °F 30.32 in Calm   2.0 mph 58% 0.00 in
01:14 45.9 °F 32.0 °F 30.32 in Calm   7.0 mph 58% 0.00 in
01:19 45.9 °F 31.5 °F 30.32 in Calm   2.0 mph 57% 0.00 in
01:24 46.0 °F 32.0 °F 30.32 in Calm     58% 0.00 in
01:29 45.9 °F 32.0 °F 30.32 in Calm   1.0 mph 58% 0.00 in
01:34 45.9 °F 32.0 °F 30.32 in Calm   2.0 mph 58% 0.00 in
01:39 45.9 °F 32.0 °F 30.32 in Calm     58% 0.00 in
01:44 45.7 °F 31.8 °F 30.33 in Calm   2.0 mph 58% 0.00 in
01:48 45.7 °F 31.8 °F 30.33 in Calm   1.0 mph 58% 0.00 in
01:54 45.7 °F 31.8 °F 30.33 in SE 2.0 mph 2.0 mph 58% 0.00 in
01:57 45.5 °F 31.6 °F 30.33 in Calm     58% 0.00 in
02:04 45.5 °F 31.6 °F 30.33 in Calm     58% 0.00 in
02:09 45.5 °F 31.6 °F 30.34 in Calm   1.0 mph 58% 0.00 in
02:14 45.5 °F 31.6 °F 30.34 in Calm   5.0 mph 58% 0.00 in
02:19 45.5 °F 31.6 °F 30.34 in Calm   1.0 mph 58% 0.00 in
02:23 45.5 °F 32.0 °F 30.34 in Calm     59% 0.00 in
02:29 45.7 °F 31.8 °F 30.34 in Calm   2.0 mph 58% 0.00 in
02:33 45.7 °F 32.2 °F 30.34 in Calm     59% 0.00 in
02:38 45.7 °F 32.2 °F 30.34 in Calm   1.0 mph 59% 0.00 in
02:44 45.5 °F 32.4 °F 30.34 in Calm     60% 0.00 in
02:49 45.3 °F 31.8 °F 30.34 in SE 0.9 mph 4.0 mph 59% 0.00 in
02:54 45.3 °F 31.8 °F 30.34 in East 2.0 mph 5.0 mph 59% 0.00 in
02:57 45.3 °F 31.8 °F 30.34 in Calm   4.0 mph 59% 0.00 in
03:02 45.3 °F 31.8 °F 30.34 in Calm   2.0 mph 59% 0.00 in
03:08 45.1 °F 31.6 °F 30.34 in SE 0.9 mph 1.0 mph 59% 0.00 in
03:14 45.1 °F 32.0 °F 30.33 in ESE 2.0 mph 2.0 mph 60% 0.00 in
03:19 45.1 °F 32.0 °F 30.33 in Calm     60% 0.00 in
03:22 45.1 °F 32.0 °F 30.33 in Calm     60% 0.00 in
03:29 45.1 °F 31.6 °F 30.33 in Calm   6.0 mph 59% 0.00 in
03:34 45.1 °F 31.6 °F 30.33 in SE 6.9 mph 7.0 mph 59% 0.00 in
03:38 45.1 °F 32.0 °F 30.33 in Calm   4.0 mph 60% 0.00 in
03:43 45.1 °F 32.0 °F 30.33 in Calm   2.0 mph 60% 0.00 in
03:46 45.1 °F 32.0 °F 30.33 in Calm   1.0 mph 60% 0.00 in
03:53 45.1 °F 32.5 °F 30.33 in Calm   2.0 mph 61% 0.00 in
03:57 45.1 °F 32.0 °F 30.34 in Calm   2.0 mph 60% 0.00 in
04:08 45.1 °F 32.5 °F 30.34 in ESE 2.0 mph 4.0 mph 61% 0.00 in
04:12 45.1 °F 32.5 °F 30.33 in Calm     61% 0.00 in
04:19 45.0 °F 33.4 °F 30.34 in Calm     64% 0.00 in
04:22 44.8 °F 34.2 °F 30.34 in Calm   1.0 mph 66% 0.00 in
04:29 44.2 °F 35.1 °F 30.34 in Calm     70% 0.00 in
04:30 44.1 °F 35.2 °F 30.33 in Calm     71% 0.00 in
04:35 43.7 °F 35.6 °F 30.33 in Calm     73% 0.00 in
04:43 43.0 °F 35.6 °F 30.33 in Calm     75% 0.01 in
04:48 42.6 °F 35.2 °F 30.33 in Calm     75% 0.01 in
04:56 42.1 °F 34.7 °F 30.34 in Calm     75% 0.01 in
05:04 41.5 °F 33.6 °F 30.34 in Calm     73% 0.01 in
05:09 41.4 °F 33.4 °F 30.34 in Calm     73% 0.02 in
05:13 41.2 °F 32.5 °F 30.34 in Calm     71% 0.02 in
05:15 41.0 °F 32.0 °F 30.34 in Calm     70% 0.02 in
05:24 40.6 °F 30.9 °F 30.34 in Calm     68% 0.03 in
05:33 40.5 °F 30.0 °F 30.34 in Calm     66% 0.04 in
05:39 40.3 °F 29.8 °F 30.33 in Calm     66% 0.04 in
05:49 39.9 °F 29.1 °F 30.32 in Calm     65% 0.05 in
05:53 39.9 °F 29.1 °F 30.31 in Calm   1.0 mph 65% 0.05 in
05:59 39.7 °F 28.6 °F 30.31 in Calm     64% 0.06 in
06:04 39.6 °F 28.4 °F 30.30 in Calm     64% 0.06 in
06:13 39.6 °F 28.0 °F 30.30 in Calm     63% 0.05 in
06:19 39.6 °F 27.7 °F 30.30 in Calm   1.0 mph 62% 0.05 in
06:22 39.6 °F 27.7 °F 30.30 in Calm     62% 0.06 in
06:26 39.6 °F 27.7 °F 30.30 in Calm     62% 0.06 in
06:31 39.6 °F 27.1 °F 30.30 in Calm     61% 0.05 in
06:39 39.6 °F 27.1 °F 30.30 in Calm     61% 0.04 in
06:44 39.6 °F 26.8 °F 30.30 in Calm     60% 0.05 in
06:59 39.6 °F 26.4 °F 30.29 in Calm     59% 0.04 in
07:04 39.6 °F 26.4 °F 30.28 in Calm     59% 0.04 in
07:13 39.6 °F 26.4 °F 30.28 in Calm     59% 0.04 in
07:19 39.4 °F 26.2 °F 30.27 in Calm     59% 0.05 in
07:24 39.4 °F 26.2 °F 30.27 in ESE 2.0 mph 2.0 mph 59% 0.04 in
07:26 39.4 °F 26.2 °F 30.27 in Calm   1.0 mph 59% 0.04 in
07:33 39.4 °F 25.9 °F 30.27 in Calm     58% 0.04 in
07:38 39.4 °F 25.9 °F 30.26 in Calm     58% 0.05 in
07:41 39.4 °F 25.9 °F 30.26 in Calm     58% 0.04 in
07:48 39.4 °F 25.9 °F 30.26 in Calm     58% 0.05 in
07:54 39.6 °F 25.5 °F 30.25 in Calm     57% 0.04 in
07:59 39.6 °F 25.5 °F 30.25 in Calm   5.0 mph 57% 0.04 in
08:04 39.7 °F 25.7 °F 30.25 in Calm     57% 0.05 in
08:09 39.7 °F 25.3 °F 30.25 in Calm     56% 0.04 in
08:12 39.9 °F 25.5 °F 30.25 in Calm     56% 0.05 in
08:16 39.9 °F 25.5 °F 30.25 in South 0.9 mph 1.0 mph 56% 0.05 in
08:29 40.5 °F 25.5 °F 30.27 in Calm     55% 0.04 in
08:34 40.5 °F 25.5 °F 30.28 in Calm     55% 0.05 in
08:36 40.6 °F 25.7 °F 30.28 in Calm     55% 0.04 in
08:43 40.8 °F 25.9 °F 30.29 in Calm     55% 0.06 in
08:54 41.0 °F 25.7 °F 30.27 in Calm     54% 0.10 in
08:59 41.2 °F 25.9 °F 30.27 in Calm     54% 0.09 in
09:03 41.2 °F 25.9 °F 30.28 in Calm     54% 0.10 in
09:07 41.2 °F 25.9 °F 30.29 in Calm     54% 0.11 in
09:13 41.2 °F 25.9 °F 30.27 in Calm     54% 0.10 in
09:19 41.4 °F 25.9 °F 30.27 in Calm     54% 0.12 in
09:23 41.4 °F 25.9 °F 30.27 in Calm     54% 0.12 in
09:34 41.2 °F 25.9 °F 30.26 in SSW 0.9 mph 1.0 mph 54% 0.12 in
09:38 41.2 °F 25.9 °F 30.26 in Calm     54% 0.12 in
09:44 41.0 °F 25.7 °F 30.26 in Calm   1.0 mph 54% 0.10 in
09:48 40.8 °F 25.5 °F 30.27 in Calm     54% 0.09 in
09:54 41.0 °F 25.7 °F 30.28 in Calm     54% 0.08 in
10:04 41.4 °F 25.9 °F 30.28 in Calm     54% 0.09 in
10:13 41.5 °F 25.7 °F 30.27 in Calm     53% 0.10 in
10:16 41.7 °F 25.9 °F 30.26 in Calm   1.0 mph 53% 0.09 in
10:21 41.7 °F 25.9 °F 30.25 in Calm     53% 0.08 in
10:27 41.9 °F 26.1 °F 30.25 in Calm     53% 0.08 in
10:32 42.1 °F 26.2 °F 30.24 in Calm     53% 0.07 in
10:41 42.3 °F 26.4 °F 30.23 in Calm   2.0 mph 53% 0.06 in
10:46 42.3 °F 25.9 °F 30.23 in Calm   4.0 mph 52% 0.05 in
10:54 42.4 °F 26.1 °F 30.23 in Calm     52% 0.04 in
10:58 42.6 °F 26.2 °F 30.23 in Calm     52% 0.04 in
11:02 42.8 °F 26.4 °F 30.24 in Calm     52% 0.02 in
11:06 42.8 °F 26.4 °F 30.22 in Calm     52% 0.02 in
11:14 43.2 °F 26.8 °F 30.23 in Calm     52% 0.02 in
11:24 43.2 °F 26.8 °F 30.24 in Calm     52% 0.05 in
11:28 43.2 °F 26.8 °F 30.23 in Calm     52% 0.06 in
11:31 43.2 °F 26.8 °F 30.22 in Calm     52% 0.07 in
11:39 43.2 °F 26.8 °F 30.22 in Calm     52% 0.09 in
11:42 43.2 °F 26.2 °F 30.22 in Calm     51% 0.10 in
11:50 43.3 °F 26.4 °F 30.22 in Calm     51% 0.13 in
11:58 43.3 °F 26.4 °F 30.23 in Calm     51% 0.16 in
12:03 43.3 °F 26.4 °F 30.23 in Calm     51% 0.20 in
12:05 43.3 °F 26.4 °F 30.23 in Calm   1.0 mph 51% 0.20 in
12:14 43.3 °F 26.4 °F 30.24 in Calm     51% 0.22 in
12:29 43.3 °F 26.4 °F 30.20 in Calm     51% 0.25 in
12:34 43.3 °F 26.4 °F 30.18 in Calm     51% 0.26 in
12:39 43.3 °F 26.4 °F 30.18 in Calm     51% 0.28 in
12:44 43.3 °F 26.4 °F 30.17 in Calm     51% 0.29 in
12:48 43.5 °F 26.6 °F 30.17 in Calm     51% 0.30 in
12:54 43.7 °F 26.8 °F 30.16 in Calm     51% 0.32 in
12:58 43.9 °F 27.0 °F 30.16 in Calm   1.0 mph 51% 0.33 in
13:04 43.9 °F 27.0 °F 30.15 in NNW 2.0 mph 2.0 mph 51% 0.35 in
13:09 43.9 °F 27.0 °F 30.16 in Calm     51% 0.37 in
13:13 43.9 °F 27.0 °F 30.16 in Calm     51% 0.40 in
13:17 44.1 °F 27.1 °F 30.17 in Calm     51% 0.42 in
13:21 44.1 °F 27.1 °F 30.16 in NE 2.0 mph 3.0 mph 51% 0.45 in
13:27 44.2 °F 27.3 °F 30.14 in Calm   2.0 mph 51% 0.50 in
13:33 44.4 °F 27.0 °F 30.15 in Calm     50% 0.51 in
13:39 44.6 °F 27.1 °F 30.14 in Calm     50% 0.51 in
13:44 44.8 °F 27.3 °F 30.14 in Calm     50% 0.52 in
Ellijay Weather
Compliments of Weather Underground - 1.75 mb